GJS5248 KSTL-KDFW
Flight info
| Callsign | GJS5248 |
|---|---|
| Flight time | 1h 37m |
| Altitude | 40000 |
| Route | JAHNY6 MAP RZC FSM KOMMA RRNET BRDJE5 |
| Aircraft | CRJ7/M-SDFGIRWY/S |
Departure
| Time | 2026-05-07 17:34 |
|---|---|
| Airport | St. Louis Lambert International Airport (KSTL) |
Arrival
| Time | 2026-05-07 19:11 |
|---|---|
| Airport | Dallas Fort Worth International Airport (KDFW) |
| Time | Latitude | Longitude | Altitude | Speed | Heading |
|---|---|---|---|---|---|
| 2026-05-07 17:09 | 38.74265 | -90.36390 | 615 ft | 0 kts | 165° |
| 2026-05-07 17:25 | 38.74274 | -90.36394 | 628 ft | 4 kts | 161° |
| 2026-05-07 17:25 | 38.74296 | -90.36410 | 620 ft | 4 kts | 131° |
| 2026-05-07 17:25 | 38.74302 | -90.36436 | 624 ft | 4 kts | 64° |
| 2026-05-07 17:25 | 38.74296 | -90.36447 | 620 ft | 1 kts | 51° |
| 2026-05-07 17:26 | 38.74295 | -90.36448 | 620 ft | 0 kts | 51° |
| 2026-05-07 17:29 | 38.74303 | -90.36435 | 626 ft | 5 kts | 51° |
| 2026-05-07 17:29 | 38.74339 | -90.36380 | 620 ft | 10 kts | 51° |
| 2026-05-07 17:29 | 38.74375 | -90.36314 | 623 ft | 9 kts | 77° |
| 2026-05-07 17:29 | 38.74355 | -90.36238 | 619 ft | 10 kts | 123° |
| 2026-05-07 17:30 | 38.74312 | -90.36153 | 627 ft | 13 kts | 122° |
| 2026-05-07 17:30 | 38.74256 | -90.36039 | 615 ft | 17 kts | 122° |
| 2026-05-07 17:30 | 38.74183 | -90.35892 | 615 ft | 21 kts | 122° |
| 2026-05-07 17:30 | 38.74105 | -90.35730 | 623 ft | 22 kts | 122° |
| 2026-05-07 17:31 | 38.74020 | -90.35567 | 624 ft | 22 kts | 123° |
| 2026-05-07 17:31 | 38.73942 | -90.35409 | 621 ft | 20 kts | 122° |
| 2026-05-07 17:31 | 38.73865 | -90.35253 | 615 ft | 21 kts | 121° |
| 2026-05-07 17:31 | 38.73786 | -90.35093 | 615 ft | 21 kts | 122° |
| 2026-05-07 17:32 | 38.73725 | -90.34969 | 621 ft | 16 kts | 122° |
| 2026-05-07 17:32 | 38.73664 | -90.34845 | 626 ft | 16 kts | 120° |
| 2026-05-07 17:32 | 38.73658 | -90.34768 | 620 ft | 7 kts | 53° |
| 2026-05-07 17:32 | 38.73676 | -90.34749 | 618 ft | 2 kts | 33° |
| 2026-05-07 17:33 | 38.73693 | -90.34736 | 615 ft | 6 kts | 33° |
| 2026-05-07 17:33 | 38.73757 | -90.34684 | 619 ft | 13 kts | 28° |
| 2026-05-07 17:33 | 38.73807 | -90.34702 | 624 ft | 6 kts | 301° |
| 2026-05-07 17:33 | 38.73879 | -90.34853 | 621 ft | 53 kts | 301° |
| 2026-05-07 17:34 | 38.74233 | -90.35574 | 615 ft | 134 kts | 302° |
| 2026-05-07 17:34 | 38.74828 | -90.36701 | 1094 ft | 162 kts | 300° |
| 2026-05-07 17:34 | 38.75492 | -90.37945 | 1987 ft | 175 kts | 301° |
| 2026-05-07 17:34 | 38.76211 | -90.39331 | 2678 ft | 203 kts | 300° |
| 2026-05-07 17:35 | 38.77000 | -90.41029 | 3158 ft | 233 kts | 296° |
| 2026-05-07 17:35 | 38.77783 | -90.42869 | 4088 ft | 236 kts | 292° |
| 2026-05-07 17:35 | 38.77957 | -90.44933 | 5106 ft | 238 kts | 258° |
| 2026-05-07 17:35 | 38.77522 | -90.46981 | 6074 ft | 241 kts | 253° |
| 2026-05-07 17:36 | 38.76833 | -90.48956 | 6990 ft | 246 kts | 240° |
| 2026-05-07 17:36 | 38.75848 | -90.50771 | 7880 ft | 250 kts | 236° |
| 2026-05-07 17:36 | 38.75143 | -90.51921 | 8434 ft | 254 kts | 231° |
| 2026-05-07 17:36 | 38.73819 | -90.53449 | 9313 ft | 259 kts | 222° |
| 2026-05-07 17:37 | 38.72366 | -90.54847 | 10165 ft | 263 kts | 220° |
| 2026-05-07 17:37 | 38.70879 | -90.56230 | 10897 ft | 269 kts | 221° |
| 2026-05-07 17:37 | 38.69335 | -90.57729 | 11152 ft | 291 kts | 223° |
| 2026-05-07 17:37 | 38.67703 | -90.59391 | 11501 ft | 310 kts | 224° |
| 2026-05-07 17:38 | 38.65992 | -90.61159 | 11964 ft | 323 kts | 224° |
| 2026-05-07 17:38 | 38.64229 | -90.62952 | 12742 ft | 327 kts | 224° |
| 2026-05-07 17:38 | 38.62437 | -90.64765 | 13566 ft | 329 kts | 225° |
| 2026-05-07 17:38 | 38.60647 | -90.66615 | 14312 ft | 332 kts | 226° |
| 2026-05-07 17:39 | 38.58835 | -90.68478 | 15004 ft | 336 kts | 226° |
| 2026-05-07 17:39 | 38.57000 | -90.70356 | 15698 ft | 339 kts | 226° |
| 2026-05-07 17:39 | 38.55163 | -90.72234 | 16376 ft | 343 kts | 226° |
| 2026-05-07 17:39 | 38.53342 | -90.74095 | 17030 ft | 345 kts | 226° |
| 2026-05-07 17:40 | 38.51452 | -90.76020 | 17686 ft | 349 kts | 226° |
| 2026-05-07 17:40 | 38.49546 | -90.77966 | 18254 ft | 354 kts | 226° |
| 2026-05-07 17:40 | 38.47614 | -90.79935 | 18828 ft | 356 kts | 226° |
| 2026-05-07 17:40 | 38.45666 | -90.81914 | 19407 ft | 358 kts | 226° |
| 2026-05-07 17:41 | 38.43713 | -90.83902 | 19968 ft | 360 kts | 226° |
| 2026-05-07 17:41 | 38.41747 | -90.85896 | 20517 ft | 362 kts | 227° |
| 2026-05-07 17:41 | 38.39780 | -90.87900 | 21046 ft | 364 kts | 226° |
| 2026-05-07 17:41 | 38.37844 | -90.89862 | 21575 ft | 366 kts | 227° |
| 2026-05-07 17:42 | 38.35875 | -90.91854 | 22094 ft | 368 kts | 227° |
| 2026-05-07 17:42 | 38.33888 | -90.93858 | 22602 ft | 370 kts | 226° |
| 2026-05-07 17:42 | 38.31907 | -90.95857 | 23095 ft | 372 kts | 226° |
| 2026-05-07 17:42 | 38.29957 | -90.97791 | 23557 ft | 375 kts | 225° |
| 2026-05-07 17:43 | 38.27863 | -90.99785 | 23991 ft | 377 kts | 225° |
| 2026-05-07 17:43 | 38.25723 | -91.01731 | 24381 ft | 380 kts | 224° |
| 2026-05-07 17:43 | 38.23541 | -91.03642 | 24767 ft | 382 kts | 223° |
| 2026-05-07 17:43 | 38.21356 | -91.05552 | 25169 ft | 383 kts | 223° |
| 2026-05-07 17:44 | 38.19160 | -91.07473 | 25546 ft | 384 kts | 223° |
| 2026-05-07 17:44 | 38.16960 | -91.09398 | 25918 ft | 384 kts | 223° |
| 2026-05-07 17:44 | 38.14754 | -91.11322 | 26282 ft | 385 kts | 223° |
| 2026-05-07 17:44 | 38.12536 | -91.13256 | 26617 ft | 387 kts | 223° |
| 2026-05-07 17:45 | 38.10319 | -91.15190 | 26932 ft | 388 kts | 223° |
| 2026-05-07 17:45 | 38.08086 | -91.17140 | 27247 ft | 390 kts | 223° |
| 2026-05-07 17:45 | 38.05851 | -91.19091 | 27568 ft | 391 kts | 223° |
| 2026-05-07 17:45 | 38.03601 | -91.21051 | 27880 ft | 392 kts | 223° |
| 2026-05-07 17:46 | 38.01462 | -91.23156 | 28181 ft | 387 kts | 229° |
| 2026-05-07 17:46 | 37.99516 | -91.25487 | 28470 ft | 384 kts | 233° |
| 2026-05-07 17:46 | 37.97700 | -91.27928 | 28755 ft | 383 kts | 234° |
| 2026-05-07 17:46 | 37.95904 | -91.30390 | 29039 ft | 385 kts | 234° |
| 2026-05-07 17:47 | 37.94073 | -91.32868 | 29274 ft | 385 kts | 234° |
| 2026-05-07 17:47 | 37.92236 | -91.35337 | 29583 ft | 386 kts | 234° |
| 2026-05-07 17:47 | 37.90383 | -91.37794 | 29835 ft | 387 kts | 233° |
| 2026-05-07 17:47 | 37.88512 | -91.40254 | 30077 ft | 388 kts | 233° |
| 2026-05-07 17:48 | 37.86638 | -91.42709 | 30339 ft | 386 kts | 233° |
| 2026-05-07 17:48 | 37.84786 | -91.45118 | 30950 ft | 377 kts | 233° |
| 2026-05-07 17:48 | 37.82973 | -91.47453 | 31524 ft | 368 kts | 234° |
| 2026-05-07 17:48 | 37.81207 | -91.49760 | 31830 ft | 367 kts | 234° |
| 2026-05-07 17:49 | 37.79433 | -91.52091 | 32007 ft | 368 kts | 234° |
| 2026-05-07 17:49 | 37.77660 | -91.54419 | 32260 ft | 367 kts | 234° |
| 2026-05-07 17:49 | 37.75885 | -91.56741 | 32539 ft | 366 kts | 234° |
| 2026-05-07 17:49 | 37.74121 | -91.59049 | 32824 ft | 365 kts | 234° |
| 2026-05-07 17:50 | 37.72365 | -91.61346 | 33106 ft | 363 kts | 234° |
| 2026-05-07 17:50 | 37.70636 | -91.63606 | 33376 ft | 361 kts | 234° |
| 2026-05-07 17:50 | 37.68895 | -91.65876 | 33636 ft | 359 kts | 234° |
| 2026-05-07 17:50 | 37.67155 | -91.68132 | 33928 ft | 357 kts | 234° |
| 2026-05-07 17:51 | 37.65429 | -91.70372 | 34171 ft | 356 kts | 234° |
| 2026-05-07 17:51 | 37.63704 | -91.72615 | 34368 ft | 355 kts | 234° |
| 2026-05-07 17:51 | 37.61984 | -91.74851 | 34553 ft | 355 kts | 234° |
| 2026-05-07 17:51 | 37.60267 | -91.77064 | 34890 ft | 350 kts | 234° |
| 2026-05-07 17:52 | 37.58665 | -91.79335 | 35121 ft | 344 kts | 239° |
| 2026-05-07 17:52 | 37.57232 | -91.81725 | 35316 ft | 340 kts | 242° |
| 2026-05-07 17:52 | 37.55906 | -91.84180 | 35501 ft | 338 kts | 243° |
| 2026-05-07 17:52 | 37.54594 | -91.86654 | 35673 ft | 338 kts | 243° |
| 2026-05-07 17:53 | 37.53287 | -91.89112 | 35842 ft | 338 kts | 243° |
| 2026-05-07 17:53 | 37.51958 | -91.91561 | 36000 ft | 338 kts | 242° |
| 2026-05-07 17:53 | 37.50609 | -91.93992 | 36137 ft | 339 kts | 242° |
| 2026-05-07 17:53 | 37.49255 | -91.96419 | 36279 ft | 339 kts | 242° |
| 2026-05-07 17:54 | 37.47893 | -91.98840 | 36433 ft | 339 kts | 242° |
| 2026-05-07 17:54 | 37.46540 | -92.01263 | 36580 ft | 338 kts | 242° |
| 2026-05-07 17:54 | 37.45184 | -92.03677 | 36783 ft | 334 kts | 242° |
| 2026-05-07 17:54 | 37.43839 | -92.06024 | 37145 ft | 329 kts | 242° |
| 2026-05-07 17:55 | 37.42499 | -92.08354 | 37315 ft | 327 kts | 242° |
| 2026-05-07 17:55 | 37.41187 | -92.10685 | 37479 ft | 327 kts | 243° |
| 2026-05-07 17:55 | 37.39878 | -92.13018 | 37635 ft | 326 kts | 243° |
| 2026-05-07 17:55 | 37.38568 | -92.15341 | 37763 ft | 325 kts | 243° |
| 2026-05-07 17:56 | 37.37270 | -92.17655 | 37889 ft | 325 kts | 243° |
| 2026-05-07 17:56 | 37.35963 | -92.19968 | 38037 ft | 325 kts | 243° |
| 2026-05-07 17:56 | 37.34657 | -92.22285 | 38168 ft | 324 kts | 243° |
| 2026-05-07 17:56 | 37.33357 | -92.24594 | 38272 ft | 324 kts | 243° |
| 2026-05-07 17:57 | 37.32053 | -92.26901 | 38410 ft | 323 kts | 243° |
| 2026-05-07 17:57 | 37.31192 | -92.28424 | 38497 ft | 323 kts | 243° |
| 2026-05-07 17:57 | 37.29451 | -92.31507 | 38604 ft | 324 kts | 243° |
| 2026-05-07 17:57 | 37.28150 | -92.33818 | 38717 ft | 323 kts | 243° |
| 2026-05-07 17:58 | 37.25562 | -92.38391 | 38891 ft | 323 kts | 243° |
| 2026-05-07 17:58 | 37.23025 | -92.42858 | 39012 ft | 325 kts | 243° |
| 2026-05-07 17:59 | 37.20422 | -92.47442 | 39163 ft | 322 kts | 243° |
| 2026-05-07 17:59 | 37.19209 | -92.49558 | 39435 ft | 317 kts | 243° |
| 2026-05-07 17:59 | 37.17950 | -92.51779 | 39511 ft | 317 kts | 243° |
| 2026-05-07 18:00 | 37.15385 | -92.56285 | 39638 ft | 318 kts | 243° |
| 2026-05-07 18:00 | 37.12857 | -92.60724 | 39738 ft | 319 kts | 243° |
| 2026-05-07 18:01 | 37.10282 | -92.65237 | 39929 ft | 317 kts | 243° |
| 2026-05-07 18:01 | 37.07945 | -92.69340 | 40058 ft | 317 kts | 242° |
| 2026-05-07 18:02 | 37.04062 | -92.76115 | 40109 ft | 322 kts | 242° |
| 2026-05-07 18:03 | 37.01451 | -92.80681 | 40108 ft | 323 kts | 242° |
| 2026-05-07 18:03 | 36.98840 | -92.85222 | 40110 ft | 323 kts | 242° |
| 2026-05-07 18:04 | 36.96215 | -92.89790 | 40113 ft | 324 kts | 242° |
| 2026-05-07 18:04 | 36.93580 | -92.94359 | 40099 ft | 323 kts | 242° |
| 2026-05-07 18:05 | 36.90954 | -92.98913 | 40105 ft | 323 kts | 242° |
| 2026-05-07 18:05 | 36.88326 | -93.03473 | 40118 ft | 324 kts | 242° |
| 2026-05-07 18:06 | 36.85688 | -93.08040 | 40117 ft | 324 kts | 242° |
| 2026-05-07 18:06 | 36.83060 | -93.12602 | 40107 ft | 323 kts | 242° |
| 2026-05-07 18:07 | 36.80460 | -93.17154 | 40113 ft | 322 kts | 242° |
| 2026-05-07 18:07 | 36.78005 | -93.21402 | 40113 ft | 322 kts | 242° |
| 2026-05-07 18:08 | 36.75446 | -93.25809 | 40114 ft | 321 kts | 242° |
| 2026-05-07 18:08 | 36.72828 | -93.30311 | 40112 ft | 320 kts | 242° |
| 2026-05-07 18:09 | 36.70205 | -93.34806 | 40111 ft | 320 kts | 242° |
| 2026-05-07 18:09 | 36.67681 | -93.39133 | 40089 ft | 318 kts | 242° |
| 2026-05-07 18:10 | 36.65126 | -93.43509 | 40107 ft | 317 kts | 242° |
| 2026-05-07 18:10 | 36.62698 | -93.47624 | 40112 ft | 316 kts | 242° |
| 2026-05-07 18:11 | 36.60553 | -93.51261 | 40110 ft | 316 kts | 242° |
| 2026-05-07 18:11 | 36.58077 | -93.55491 | 40110 ft | 315 kts | 242° |
| 2026-05-07 18:12 | 36.55671 | -93.59596 | 40117 ft | 314 kts | 242° |
| 2026-05-07 18:12 | 36.53093 | -93.63984 | 40109 ft | 314 kts | 242° |
| 2026-05-07 18:13 | 36.50515 | -93.68350 | 40120 ft | 313 kts | 242° |
| 2026-05-07 18:13 | 36.47938 | -93.72734 | 40126 ft | 315 kts | 242° |
| 2026-05-07 18:14 | 36.45347 | -93.77133 | 40137 ft | 316 kts | 242° |
| 2026-05-07 18:14 | 36.42743 | -93.81542 | 40099 ft | 317 kts | 241° |
| 2026-05-07 18:15 | 36.40131 | -93.85956 | 40131 ft | 318 kts | 242° |
| 2026-05-07 18:15 | 36.37517 | -93.90374 | 40131 ft | 319 kts | 241° |
| 2026-05-07 18:16 | 36.35003 | -93.94612 | 40131 ft | 319 kts | 241° |
| 2026-05-07 18:16 | 36.32662 | -93.98557 | 40137 ft | 320 kts | 241° |
| 2026-05-07 18:17 | 36.30192 | -94.02705 | 40138 ft | 322 kts | 240° |
| 2026-05-07 18:17 | 36.28531 | -94.04655 | 40139 ft | 341 kts | 225° |
| 2026-05-07 18:17 | 36.27140 | -94.05592 | 40147 ft | 352 kts | 218° |
| 2026-05-07 18:18 | 36.23049 | -94.07925 | 40139 ft | 352 kts | 219° |
| 2026-05-07 18:18 | 36.18877 | -94.10527 | 40136 ft | 350 kts | 221° |
| 2026-05-07 18:19 | 36.14671 | -94.13468 | 40122 ft | 342 kts | 226° |
| 2026-05-07 18:19 | 36.11245 | -94.16479 | 40139 ft | 355 kts | 216° |
| 2026-05-07 18:19 | 36.08768 | -94.17272 | 40142 ft | 384 kts | 201° |
| 2026-05-07 18:20 | 36.05995 | -94.17163 | 40153 ft | 416 kts | 186° |
| 2026-05-07 18:20 | 36.00362 | -94.16085 | 40147 ft | 393 kts | 199° |
| 2026-05-07 18:20 | 35.97740 | -94.16521 | 40153 ft | 373 kts | 207° |
| 2026-05-07 18:21 | 35.95206 | -94.17193 | 40146 ft | 374 kts | 207° |
| 2026-05-07 18:21 | 35.89993 | -94.18242 | 40141 ft | 384 kts | 203° |
| 2026-05-07 18:22 | 35.84679 | -94.19068 | 40110 ft | 384 kts | 204° |
| 2026-05-07 18:22 | 35.79450 | -94.20005 | 40111 ft | 383 kts | 204° |
| 2026-05-07 18:23 | 35.74180 | -94.20920 | 40110 ft | 384 kts | 204° |
| 2026-05-07 18:23 | 35.68972 | -94.21828 | 40113 ft | 384 kts | 204° |
| 2026-05-07 18:24 | 35.63689 | -94.22752 | 40122 ft | 383 kts | 204° |
| 2026-05-07 18:24 | 35.58405 | -94.23674 | 40142 ft | 384 kts | 204° |
| 2026-05-07 18:25 | 35.53108 | -94.24591 | 40147 ft | 385 kts | 204° |
| 2026-05-07 18:25 | 35.48707 | -94.25356 | 40135 ft | 387 kts | 204° |
| 2026-05-07 18:26 | 35.43476 | -94.26521 | 40130 ft | 364 kts | 216° |
| 2026-05-07 18:26 | 35.38990 | -94.29109 | 40121 ft | 354 kts | 220° |
| 2026-05-07 18:27 | 35.34694 | -94.31975 | 40132 ft | 349 kts | 223° |
| 2026-05-07 18:27 | 35.30907 | -94.35462 | 40137 ft | 335 kts | 233° |
| 2026-05-07 18:28 | 35.27545 | -94.39395 | 40130 ft | 335 kts | 233° |
| 2026-05-07 18:28 | 35.24050 | -94.43221 | 40132 ft | 338 kts | 232° |
| 2026-05-07 18:29 | 35.20538 | -94.47042 | 40127 ft | 338 kts | 232° |
| 2026-05-07 18:29 | 35.17016 | -94.50866 | 40128 ft | 339 kts | 232° |
| 2026-05-07 18:30 | 35.13521 | -94.54661 | 40111 ft | 338 kts | 231° |
| 2026-05-07 18:30 | 35.10008 | -94.58468 | 40125 ft | 337 kts | 231° |
| 2026-05-07 18:31 | 35.06519 | -94.62242 | 40123 ft | 337 kts | 231° |
| 2026-05-07 18:31 | 35.03011 | -94.66030 | 40124 ft | 337 kts | 231° |
| 2026-05-07 18:32 | 34.99472 | -94.69768 | 40122 ft | 337 kts | 230° |
| 2026-05-07 18:32 | 34.96051 | -94.73380 | 40121 ft | 336 kts | 231° |
| 2026-05-07 18:33 | 34.92526 | -94.77130 | 40118 ft | 336 kts | 231° |
| 2026-05-07 18:33 | 34.89058 | -94.80818 | 40081 ft | 335 kts | 231° |
| 2026-05-07 18:34 | 34.85577 | -94.84531 | 40109 ft | 335 kts | 231° |
| 2026-05-07 18:34 | 34.82319 | -94.87984 | 40114 ft | 335 kts | 230° |
| 2026-05-07 18:35 | 34.78760 | -94.91647 | 40111 ft | 335 kts | 230° |
| 2026-05-07 18:35 | 34.75192 | -94.95302 | 40121 ft | 335 kts | 230° |
| 2026-05-07 18:36 | 34.71616 | -94.98948 | 40118 ft | 336 kts | 230° |
| 2026-05-07 18:36 | 34.68040 | -95.02598 | 40117 ft | 336 kts | 230° |
| 2026-05-07 18:37 | 34.64460 | -95.06246 | 40117 ft | 336 kts | 230° |
| 2026-05-07 18:37 | 34.60910 | -95.09863 | 40088 ft | 335 kts | 230° |
| 2026-05-07 18:38 | 34.57334 | -95.13491 | 40108 ft | 335 kts | 230° |
| 2026-05-07 18:38 | 34.53823 | -95.17058 | 40112 ft | 336 kts | 230° |
| 2026-05-07 18:39 | 34.50249 | -95.20703 | 40119 ft | 336 kts | 230° |
| 2026-05-07 18:39 | 34.46900 | -95.24101 | 40119 ft | 337 kts | 229° |
| 2026-05-07 18:40 | 34.43307 | -95.27684 | 40104 ft | 336 kts | 229° |
| 2026-05-07 18:40 | 34.39719 | -95.31318 | 40118 ft | 337 kts | 230° |
| 2026-05-07 18:41 | 34.36114 | -95.34953 | 40129 ft | 337 kts | 229° |
| 2026-05-07 18:41 | 34.32511 | -95.38575 | 40110 ft | 336 kts | 229° |
| 2026-05-07 18:42 | 34.28913 | -95.42188 | 40121 ft | 336 kts | 229° |
| 2026-05-07 18:42 | 34.25404 | -95.45708 | 40129 ft | 337 kts | 229° |
| 2026-05-07 18:42 | 34.23585 | -95.47521 | 39933 ft | 340 kts | 229° |
| 2026-05-07 18:43 | 34.21773 | -95.49326 | 39632 ft | 336 kts | 229° |
| 2026-05-07 18:43 | 34.19979 | -95.51113 | 39306 ft | 332 kts | 229° |
| 2026-05-07 18:43 | 34.18202 | -95.52869 | 38925 ft | 328 kts | 229° |
| 2026-05-07 18:43 | 34.16455 | -95.54611 | 38469 ft | 323 kts | 229° |
| 2026-05-07 18:44 | 34.14735 | -95.56326 | 38014 ft | 319 kts | 229° |
| 2026-05-07 18:44 | 34.13031 | -95.58031 | 37554 ft | 317 kts | 229° |
| 2026-05-07 18:44 | 34.11337 | -95.59736 | 37112 ft | 318 kts | 229° |
| 2026-05-07 18:44 | 34.09628 | -95.61453 | 36682 ft | 321 kts | 229° |
| 2026-05-07 18:45 | 34.07924 | -95.63155 | 36233 ft | 324 kts | 228° |
| 2026-05-07 18:45 | 34.06192 | -95.64903 | 35837 ft | 326 kts | 229° |
| 2026-05-07 18:45 | 34.04429 | -95.66674 | 35428 ft | 328 kts | 228° |
| 2026-05-07 18:45 | 34.02667 | -95.68436 | 35032 ft | 330 kts | 228° |
| 2026-05-07 18:46 | 34.00887 | -95.70212 | 34635 ft | 332 kts | 227° |
| 2026-05-07 18:46 | 33.99130 | -95.71967 | 34253 ft | 334 kts | 227° |
| 2026-05-07 18:46 | 33.97332 | -95.73758 | 33836 ft | 336 kts | 227° |
| 2026-05-07 18:46 | 33.95529 | -95.75553 | 33388 ft | 337 kts | 227° |
| 2026-05-07 18:47 | 33.93712 | -95.77358 | 32952 ft | 339 kts | 227° |
| 2026-05-07 18:47 | 33.91888 | -95.79171 | 32525 ft | 342 kts | 227° |
| 2026-05-07 18:47 | 33.90038 | -95.81007 | 32113 ft | 348 kts | 227° |
| 2026-05-07 18:47 | 33.88159 | -95.82874 | 31708 ft | 353 kts | 227° |
| 2026-05-07 18:48 | 33.86254 | -95.84764 | 31301 ft | 358 kts | 227° |
| 2026-05-07 18:48 | 33.84328 | -95.86671 | 30877 ft | 359 kts | 227° |
| 2026-05-07 18:48 | 33.82399 | -95.88583 | 30459 ft | 359 kts | 227° |
| 2026-05-07 18:48 | 33.80472 | -95.90490 | 29959 ft | 360 kts | 226° |
| 2026-05-07 18:49 | 33.78537 | -95.92409 | 29469 ft | 361 kts | 226° |
| 2026-05-07 18:49 | 33.76591 | -95.94331 | 28987 ft | 363 kts | 226° |
| 2026-05-07 18:49 | 33.74642 | -95.96261 | 28520 ft | 364 kts | 226° |
| 2026-05-07 18:49 | 33.72695 | -95.98183 | 28059 ft | 366 kts | 226° |
| 2026-05-07 18:50 | 33.70738 | -96.00118 | 27607 ft | 367 kts | 226° |
| 2026-05-07 18:50 | 33.68762 | -96.02075 | 27159 ft | 369 kts | 226° |
| 2026-05-07 18:50 | 33.66853 | -96.03956 | 26740 ft | 371 kts | 226° |
| 2026-05-07 18:50 | 33.64888 | -96.05898 | 26306 ft | 373 kts | 226° |
| 2026-05-07 18:51 | 33.62880 | -96.07876 | 25880 ft | 375 kts | 226° |
| 2026-05-07 18:51 | 33.60852 | -96.09876 | 25459 ft | 378 kts | 226° |
| 2026-05-07 18:51 | 33.58825 | -96.11872 | 25048 ft | 380 kts | 226° |
| 2026-05-07 18:51 | 33.56773 | -96.13894 | 24633 ft | 383 kts | 226° |
| 2026-05-07 18:52 | 33.54741 | -96.15889 | 24237 ft | 373 kts | 226° |
| 2026-05-07 18:52 | 33.52792 | -96.17796 | 23826 ft | 365 kts | 226° |
| 2026-05-07 18:52 | 33.50809 | -96.19742 | 23350 ft | 362 kts | 227° |
| 2026-05-07 18:52 | 33.48899 | -96.21623 | 22877 ft | 359 kts | 226° |
| 2026-05-07 18:53 | 33.46954 | -96.23534 | 22394 ft | 357 kts | 226° |
| 2026-05-07 18:53 | 33.45037 | -96.25417 | 21933 ft | 354 kts | 227° |
| 2026-05-07 18:53 | 33.43391 | -96.27281 | 21503 ft | 349 kts | 232° |
| 2026-05-07 18:53 | 33.41794 | -96.29442 | 21058 ft | 345 kts | 236° |
| 2026-05-07 18:54 | 33.40259 | -96.31650 | 20617 ft | 344 kts | 236° |
| 2026-05-07 18:54 | 33.38723 | -96.33845 | 20184 ft | 344 kts | 235° |
| 2026-05-07 18:54 | 33.37244 | -96.35961 | 19774 ft | 344 kts | 235° |
| 2026-05-07 18:54 | 33.35691 | -96.38133 | 19352 ft | 344 kts | 234° |
| 2026-05-07 18:55 | 33.34127 | -96.40295 | 18940 ft | 344 kts | 234° |
| 2026-05-07 18:55 | 33.32551 | -96.42457 | 18531 ft | 344 kts | 234° |
| 2026-05-07 18:55 | 33.30978 | -96.44615 | 18070 ft | 344 kts | 234° |
| 2026-05-07 18:55 | 33.29419 | -96.46776 | 17615 ft | 342 kts | 234° |
| 2026-05-07 18:56 | 33.27882 | -96.48929 | 17158 ft | 339 kts | 234° |
| 2026-05-07 18:56 | 33.26342 | -96.51059 | 16699 ft | 338 kts | 233° |
| 2026-05-07 18:56 | 33.24780 | -96.53142 | 16254 ft | 336 kts | 233° |
| 2026-05-07 18:56 | 33.23218 | -96.55211 | 15814 ft | 335 kts | 233° |
| 2026-05-07 18:57 | 33.21662 | -96.57268 | 15369 ft | 333 kts | 233° |
| 2026-05-07 18:57 | 33.20108 | -96.59313 | 14937 ft | 332 kts | 233° |
| 2026-05-07 18:57 | 33.18771 | -96.61081 | 14575 ft | 331 kts | 233° |
| 2026-05-07 18:57 | 33.17243 | -96.63102 | 14165 ft | 329 kts | 233° |
| 2026-05-07 18:58 | 33.15715 | -96.65130 | 13723 ft | 327 kts | 233° |
| 2026-05-07 18:58 | 33.14251 | -96.67119 | 13263 ft | 325 kts | 233° |
| 2026-05-07 18:58 | 33.13063 | -96.68737 | 12889 ft | 324 kts | 233° |
| 2026-05-07 18:58 | 33.11604 | -96.70735 | 12856 ft | 320 kts | 233° |
| 2026-05-07 18:59 | 33.10141 | -96.72733 | 12885 ft | 319 kts | 233° |
| 2026-05-07 18:59 | 33.08681 | -96.74725 | 12906 ft | 320 kts | 233° |
| 2026-05-07 18:59 | 33.07219 | -96.76724 | 12908 ft | 320 kts | 233° |
| 2026-05-07 18:59 | 33.05769 | -96.78737 | 12914 ft | 320 kts | 234° |
| 2026-05-07 19:00 | 33.04327 | -96.80738 | 12465 ft | 314 kts | 234° |
| 2026-05-07 19:00 | 33.02944 | -96.82650 | 12199 ft | 300 kts | 233° |
| 2026-05-07 19:00 | 33.01596 | -96.84488 | 12073 ft | 288 kts | 233° |
| 2026-05-07 19:00 | 33.00306 | -96.86236 | 12051 ft | 272 kts | 233° |
| 2026-05-07 19:01 | 32.99087 | -96.87884 | 12026 ft | 259 kts | 233° |
| 2026-05-07 19:01 | 32.97827 | -96.89414 | 11712 ft | 263 kts | 220° |
| 2026-05-07 19:01 | 32.96073 | -96.90200 | 11382 ft | 275 kts | 200° |
| 2026-05-07 19:01 | 32.94183 | -96.90605 | 11089 ft | 277 kts | 193° |
| 2026-05-07 19:02 | 32.92277 | -96.90800 | 10696 ft | 279 kts | 189° |
| 2026-05-07 19:02 | 32.90312 | -96.90906 | 10264 ft | 279 kts | 188° |
| 2026-05-07 19:02 | 32.88377 | -96.91006 | 9830 ft | 278 kts | 188° |
| 2026-05-07 19:02 | 32.86455 | -96.91102 | 9383 ft | 276 kts | 188° |
| 2026-05-07 19:03 | 32.84541 | -96.91201 | 8907 ft | 275 kts | 188° |
| 2026-05-07 19:03 | 32.82661 | -96.91325 | 8425 ft | 273 kts | 188° |
| 2026-05-07 19:03 | 32.80960 | -96.91449 | 7959 ft | 272 kts | 190° |
| 2026-05-07 19:03 | 32.79220 | -96.92119 | 7426 ft | 261 kts | 216° |
| 2026-05-07 19:04 | 32.77610 | -96.93114 | 6899 ft | 264 kts | 204° |
| 2026-05-07 19:04 | 32.75875 | -96.93842 | 6430 ft | 264 kts | 203° |
| 2026-05-07 19:04 | 32.74278 | -96.94501 | 5973 ft | 266 kts | 202° |
| 2026-05-07 19:04 | 32.72528 | -96.95229 | 5513 ft | 267 kts | 202° |
| 2026-05-07 19:05 | 32.70779 | -96.95967 | 5360 ft | 255 kts | 202° |
| 2026-05-07 19:05 | 32.69167 | -96.96636 | 5383 ft | 236 kts | 202° |
| 2026-05-07 19:05 | 32.67702 | -96.97286 | 5351 ft | 220 kts | 211° |
| 2026-05-07 19:05 | 32.66771 | -96.98486 | 5291 ft | 185 kts | 251° |
| 2026-05-07 19:06 | 32.66803 | -96.99957 | 4626 ft | 187 kts | 294° |
| 2026-05-07 19:06 | 32.68444 | -97.02089 | 3479 ft | 180 kts | 344° |
| 2026-05-07 19:06 | 32.69633 | -97.02571 | 3224 ft | 179 kts | 350° |
| 2026-05-07 19:07 | 32.70878 | -97.02606 | 3118 ft | 180 kts | 0° |
| 2026-05-07 19:07 | 32.72155 | -97.02656 | 3078 ft | 187 kts | 360° |
| 2026-05-07 19:07 | 32.73470 | -97.02700 | 3049 ft | 191 kts | 360° |
| 2026-05-07 19:07 | 32.74798 | -97.02722 | 3024 ft | 191 kts | 2° |
| 2026-05-07 19:08 | 32.76121 | -97.02711 | 3022 ft | 189 kts | 3° |
| 2026-05-07 19:08 | 32.77291 | -97.02687 | 3174 ft | 147 kts | 2° |
| 2026-05-07 19:08 | 32.78279 | -97.02674 | 2710 ft | 143 kts | 1° |
| 2026-05-07 19:08 | 32.79237 | -97.02683 | 2359 ft | 133 kts | 1° |
| 2026-05-07 19:09 | 32.80162 | -97.02676 | 2102 ft | 135 kts | 2° |
| 2026-05-07 19:09 | 32.81112 | -97.02665 | 1910 ft | 138 kts | 2° |
| 2026-05-07 19:09 | 32.82053 | -97.02646 | 1724 ft | 133 kts | 2° |
| 2026-05-07 19:09 | 32.83001 | -97.02623 | 1515 ft | 139 kts | 2° |
| 2026-05-07 19:10 | 32.83957 | -97.02608 | 1318 ft | 136 kts | 0° |
| 2026-05-07 19:10 | 32.84878 | -97.02620 | 1144 ft | 131 kts | 2° |
| 2026-05-07 19:10 | 32.85789 | -97.02625 | 1010 ft | 130 kts | 2° |
| 2026-05-07 19:10 | 32.86687 | -97.02618 | 856 ft | 136 kts | 2° |
| 2026-05-07 19:11 | 32.87633 | -97.02612 | 669 ft | 129 kts | 1° |
| 2026-05-07 19:11 | 32.88504 | -97.02613 | 573 ft | 113 kts | 1° |
| 2026-05-07 19:11 | 32.88858 | -97.02611 | 576 ft | 1 kts | 0° |
| 2026-05-07 19:11 | 32.88950 | -97.02611 | 578 ft | 23 kts | 0° |
| 2026-05-07 19:12 | 32.89107 | -97.02626 | 572 ft | 23 kts | 343° |
| 2026-05-07 19:12 | 32.89244 | -97.02704 | 574 ft | 14 kts | 330° |
| 2026-05-07 19:12 | 32.89314 | -97.02752 | 575 ft | 13 kts | 331° |
| 2026-05-07 19:12 | 32.89389 | -97.02820 | 573 ft | 13 kts | 294° |
| 2026-05-07 19:13 | 32.89394 | -97.02915 | 573 ft | 13 kts | 268° |
| 2026-05-07 19:13 | 32.89394 | -97.03020 | 574 ft | 17 kts | 270° |
| 2026-05-07 19:13 | 32.89396 | -97.03167 | 574 ft | 18 kts | 270° |
| 2026-05-07 19:13 | 32.89395 | -97.03265 | 580 ft | 11 kts | 271° |
| 2026-05-07 19:14 | 32.89396 | -97.03336 | 584 ft | 11 kts | 270° |
| 2026-05-07 19:14 | 32.89396 | -97.03441 | 584 ft | 15 kts | 270° |
| 2026-05-07 19:14 | 32.89396 | -97.03512 | 584 ft | 16 kts | 270° |
| 2026-05-07 19:14 | 32.89376 | -97.03582 | 583 ft | 8 kts | 217° |
| 2026-05-07 19:15 | 32.89335 | -97.03631 | 583 ft | 9 kts | 229° |
| 2026-05-07 19:15 | 32.89307 | -97.03670 | 582 ft | 1 kts | 228° |